This is the latest recevied weather packets stored in our database for station/object N9CQS-13. If no packets are shown the sender has not sent any weather packets the latest 10 day(s).
| Time | Temp. | Humidity | Pressure | Rain* | Wind** | Luminosity | Snow |
|---|---|---|---|---|---|---|---|
| 1777752691 | 13.33° C | 35% | 1019.4 hPa | 0 mm | - | - | - |
| 1777752092 | 13.89° C | 34% | 1019.4 hPa | 0 mm | - | - | - |
| 1777751491 | 13.33° C | 33% | 1019.4 hPa | 0 mm | - | - | - |
| 1777750891 | 12.78° C | 36% | 1019.7 hPa | 0 mm | - | - | - |
| 1777750291 | 13.33° C | 34% | 1019.7 hPa | 0 mm | - | - | - |
| 1777749691 | 14.44° C | 33% | 1019.6 hPa | 0 mm | - | - | - |
| 1777749091 | 12.78° C | 34% | 1019.7 hPa | 0 mm | - | - | - |
| 1777748491 | 12.78° C | 34% | 1019.8 hPa | 0 mm | - | - | - |
| 1777747891 | 13.33° C | 34% | 1019.8 hPa | 0 mm | - | - | - |
| 1777747292 | 13.33° C | 34% | 1020 hPa | 0 mm | - | - | - |
| 1777746692 | 14.44° C | 34% | 1019.9 hPa | 0 mm | - | - | - |
| 1777746092 | 15.56° C | 32% | 1019.8 hPa | 0 mm | - | - | - |
| 1777745493 | 13.33° C | 34% | 1020 hPa | 0 mm | - | - | - |
| 1777744892 | 14.44° C | 32% | 1020 hPa | 0 mm | - | - | - |
| 1777744292 | 14.44° C | 34% | 1020.1 hPa | 0 mm | - | - | - |
| 1777743692 | 14.44° C | 31% | 1020.3 hPa | 0 mm | - | - | - |
| 1777743092 | 13.33° C | 34% | 1020.3 hPa | 0 mm | - | - | - |
| 1777742492 | 13.89° C | 35% | 1020.4 hPa | 0 mm | - | - | - |
| 1777741892 | 14.44° C | 36% | 1020.4 hPa | 0 mm | - | - | - |
| 1777741292 | 14.44° C | 38% | 1020.4 hPa | 0 mm | - | - | - |
| 1777740692 | 13.89° C | 38% | 1020.7 hPa | 0 mm | - | - | - |
| 1777740092 | 13.33° C | 37% | 1021 hPa | 0 mm | - | - | - |
| 1777739492 | 12.78° C | 37% | 1021.1 hPa | 0 mm | - | - | - |
| 1777738892 | 12.78° C | 39% | 1021.1 hPa | 0 mm | - | - | - |
| 1777738292 | 12.78° C | 40% | 1021.1 hPa | 0 mm | - | - | - |
* Rain latest hour (hover to see other rain measurements)
** Current wind speed in m/s (hover to see current wind gust speed)